PWSweather.com
Personal Weather Stations
Station Observations
ILAZIOPO4
Tetto, PomeziaIT 00040

TettoPomeziaIT 00040

Lat: 41.6674809, Lon: 12.5080234

Elevation: 85

Station Type: Davis Vantage Pro2 Plus

http://pomeziameteo.it

High Low Average
Temperature 74.8°F23.8°C 63.9°F17.7°C 68.1°F20.1°C
Dew Point 65.7°F18.7°C 50.4°F10.2°C 59.1°F15.1°C
Winds 11.0 mph 17.7 kmh Calm Calm 2.0 mph SSE3.2 kmh SSE
Wind Gusts 18.0 mph29.0 kmh -- 7.0 mph11.3 kmh
Humidity 92% 57% 74%
Pressure 29.88 in1011.9 mb 29.72 in1006.4 mb -
Precipitation 0.34 in8.6 mm - -
Hour Temp Dew Point Humidity Winds Wind Gusts Pressure Precip Precip Rate Daily Precip Total
12:00 AM 66.4°F19.1°C 61.7°F16.5°C 85% Calm Calm -- 29.89 in1012.2 mb 0.00 in0.0 mm 0.00 in0.0 mm 0.00 in0.0 mm
12:05 AM 66.5°F19.2°C 61.8°F16.6°C 85% Calm Calm -- 29.89 in1012.2 mb 0.00 in0.0 mm 0.00 in0.0 mm 0.00 in0.0 mm
12:10 AM 66.6°F19.2°C 61.6°F16.4°C 84% Calm Calm -- 29.89 in1012.2 mb 0.00 in0.0 mm 0.00 in0.0 mm 0.00 in0.0 mm
12:15 AM 66.7°F19.3°C 61.7°F16.5°C 84% Calm Calm -- 29.89 in1012.2 mb 0.00 in0.0 mm 0.00 in0.0 mm 0.00 in0.0 mm
12:20 AM 66.7°F19.3°C 61.7°F16.5°C 84% Calm Calm -- 29.89 in1012.2 mb 0.00 in0.0 mm 0.00 in0.0 mm 0.00 in0.0 mm
12:25 AM 66.7°F19.3°C 61.7°F16.5°C 84% Calm Calm -- 29.89 in1012.2 mb 0.00 in0.0 mm 0.00 in0.0 mm 0.00 in0.0 mm
12:30 AM 66.7°F19.3°C 61.7°F16.5°C 84% Calm Calm -- 29.89 in1012.2 mb 0.00 in0.0 mm 0.00 in0.0 mm 0.00 in0.0 mm
12:35 AM 66.7°F19.3°C 61.7°F16.5°C 84% Calm Calm -- 29.89 in1012.2 mb 0.00 in0.0 mm 0.00 in0.0 mm 0.00 in0.0 mm
12:40 AM 66.7°F19.3°C 61.7°F16.5°C 84% Calm Calm -- 29.88 in1011.9 mb 0.00 in0.0 mm 0.00 in0.0 mm 0.00 in0.0 mm
12:45 AM 66.6°F19.2°C 61.6°F16.4°C 84% Calm Calm -- 29.88 in1011.9 mb 0.00 in0.0 mm 0.00 in0.0 mm 0.00 in0.0 mm
12:50 AM 66.5°F19.2°C 61.5°F16.4°C 84% Calm Calm -- 29.88 in1011.9 mb 0.00 in0.0 mm 0.00 in0.0 mm 0.00 in0.0 mm
12:55 AM 66.3°F19.1°C 61.3°F16.3°C 84% Calm Calm -- 29.88 in1011.9 mb 0.00 in0.0 mm 0.00 in0.0 mm 0.00 in0.0 mm
01:00 AM 66.2°F19.0°C 61.2°F16.2°C 84% Calm Calm -- 29.88 in1011.9 mb 0.00 in0.0 mm 0.00 in0.0 mm 0.00 in0.0 mm
01:05 AM 66.1°F18.9°C 61.4°F16.3°C 85% Calm Calm -- 29.88 in1011.9 mb 0.00 in0.0 mm 0.00 in0.0 mm 0.00 in0.0 mm
01:10 AM 66.0°F18.9°C 61.3°F16.3°C 85% Calm Calm -- 29.88 in1011.9 mb 0.00 in0.0 mm 0.00 in0.0 mm 0.00 in0.0 mm
01:15 AM 65.9°F18.8°C 61.2°F16.2°C 85% Calm Calm -- 29.88 in1011.9 mb 0.00 in0.0 mm 0.00 in0.0 mm 0.00 in0.0 mm
01:20 AM 65.8°F18.8°C 61.1°F16.2°C 85% Calm Calm -- 29.88 in1011.9 mb 0.00 in0.0 mm 0.00 in0.0 mm 0.00 in0.0 mm
01:25 AM 65.6°F18.7°C 60.9°F16.1°C 85% Calm Calm -- 29.88 in1011.9 mb 0.00 in0.0 mm 0.00 in0.0 mm 0.00 in0.0 mm
01:30 AM 65.4°F18.6°C 60.7°F15.9°C 85% Calm Calm -- 29.88 in1011.9 mb 0.00 in0.0 mm 0.00 in0.0 mm 0.00 in0.0 mm
01:35 AM 65.3°F18.5°C 60.9°F16.1°C 86% Calm Calm -- 29.88 in1011.9 mb 0.00 in0.0 mm 0.00 in0.0 mm 0.00 in0.0 mm
01:40 AM 65.2°F18.4°C 60.9°F16.1°C 86% Calm Calm -- 29.87 in1011.5 mb 0.00 in0.0 mm 0.00 in0.0 mm 0.00 in0.0 mm
01:45 AM 65.1°F18.4°C 60.8°F16.0°C 86% Calm Calm -- 29.87 in1011.5 mb 0.00 in0.0 mm 0.00 in0.0 mm 0.00 in0.0 mm
01:50 AM 64.9°F18.3°C 60.6°F15.9°C 86% Calm Calm -- 29.87 in1011.5 mb 0.00 in0.0 mm 0.00 in0.0 mm 0.00 in0.0 mm
01:55 AM 64.7°F18.2°C 60.4°F15.8°C 86% Calm Calm -- 29.87 in1011.5 mb 0.00 in0.0 mm 0.00 in0.0 mm 0.00 in0.0 mm
02:00 AM 64.6°F18.1°C 60.6°F15.9°C 87% Calm Calm -- 29.87 in1011.5 mb 0.00 in0.0 mm 0.00 in0.0 mm 0.00 in0.0 mm
02:05 AM 64.5°F18.1°C 60.5°F15.8°C 87% Calm Calm -- 29.87 in1011.5 mb 0.00 in0.0 mm 0.00 in0.0 mm 0.00 in0.0 mm
02:10 AM 64.4°F18.0°C 60.4°F15.8°C 87% Calm Calm -- 29.87 in1011.5 mb 0.00 in0.0 mm 0.00 in0.0 mm 0.00 in0.0 mm
02:15 AM 64.3°F17.9°C 60.3°F15.7°C 87% Calm Calm -- 29.86 in1011.2 mb 0.00 in0.0 mm 0.00 in0.0 mm 0.00 in0.0 mm
02:20 AM 64.3°F17.9°C 60.6°F15.9°C 88% Calm Calm -- 29.86 in1011.2 mb 0.00 in0.0 mm 0.00 in0.0 mm 0.00 in0.0 mm
02:25 AM 64.2°F17.9°C 60.2°F15.7°C 87% Calm Calm -- 29.86 in1011.2 mb 0.00 in0.0 mm 0.00 in0.0 mm 0.00 in0.0 mm
02:30 AM 64.2°F17.9°C 60.5°F15.8°C 88% Calm Calm -- 29.86 in1011.2 mb 0.00 in0.0 mm 0.00 in0.0 mm 0.00 in0.0 mm
02:35 AM 64.1°F17.8°C 60.4°F15.8°C 88% Calm Calm -- 29.86 in1011.2 mb 0.00 in0.0 mm 0.00 in0.0 mm 0.00 in0.0 mm
02:40 AM 64.2°F17.9°C 60.5°F15.8°C 88% Calm Calm -- 29.86 in1011.2 mb 0.00 in0.0 mm 0.00 in0.0 mm 0.00 in0.0 mm
02:45 AM 64.2°F17.9°C 60.5°F15.8°C 88% Calm Calm -- 29.85 in1010.8 mb 0.00 in0.0 mm 0.00 in0.0 mm 0.00 in0.0 mm
02:50 AM 64.2°F17.9°C 60.5°F15.8°C 88% Calm Calm -- 29.85 in1010.8 mb 0.00 in0.0 mm 0.00 in0.0 mm 0.00 in0.0 mm
02:55 AM 64.3°F17.9°C 60.6°F15.9°C 88% Calm Calm -- 29.85 in1010.8 mb 0.00 in0.0 mm 0.00 in0.0 mm 0.00 in0.0 mm
03:00 AM 64.4°F18.0°C 60.7°F15.9°C 88% Calm Calm -- 29.85 in1010.8 mb 0.00 in0.0 mm 0.00 in0.0 mm 0.00 in0.0 mm
03:05 AM 64.5°F18.1°C 60.8°F16.0°C 88% Calm Calm 5.0 mph8.0 kmh 29.85 in1010.8 mb 0.00 in0.0 mm 0.00 in0.0 mm 0.00 in0.0 mm
03:10 AM 64.6°F18.1°C 60.9°F16.1°C 88% Calm Calm 6.0 mph9.7 kmh 29.85 in1010.8 mb 0.00 in0.0 mm 0.00 in0.0 mm 0.00 in0.0 mm
03:15 AM 64.6°F18.1°C 60.9°F16.1°C 88% 3.0 mph SE4.8 kmh SE 3.0 mph4.8 kmh 29.85 in1010.8 mb 0.00 in0.0 mm 0.00 in0.0 mm 0.00 in0.0 mm
03:20 AM 64.6°F18.1°C 60.9°F16.1°C 88% Calm Calm 4.0 mph6.4 kmh 29.85 in1010.8 mb 0.00 in0.0 mm 0.00 in0.0 mm 0.00 in0.0 mm
03:25 AM 64.7°F18.2°C 61.0°F16.1°C 88% Calm Calm 4.0 mph6.4 kmh 29.85 in1010.8 mb 0.00 in0.0 mm 0.00 in0.0 mm 0.00 in0.0 mm
03:30 AM 64.7°F18.2°C 61.0°F16.1°C 88% Calm Calm 1.0 mph1.6 kmh 29.84 in1010.5 mb 0.00 in0.0 mm 0.00 in0.0 mm 0.00 in0.0 mm
03:35 AM 64.6°F18.1°C 60.9°F16.1°C 88% Calm Calm -- 29.84 in1010.5 mb 0.00 in0.0 mm 0.00 in0.0 mm 0.00 in0.0 mm
03:40 AM 64.6°F18.1°C 60.9°F16.1°C 88% Calm Calm -- 29.84 in1010.5 mb 0.00 in0.0 mm 0.00 in0.0 mm 0.00 in0.0 mm
03:45 AM 64.7°F18.2°C 61.0°F16.1°C 88% Calm Calm -- 29.84 in1010.5 mb 0.00 in0.0 mm 0.00 in0.0 mm 0.00 in0.0 mm
03:50 AM 64.7°F18.2°C 61.0°F16.1°C 88% Calm Calm -- 29.84 in1010.5 mb 0.00 in0.0 mm 0.00 in0.0 mm 0.00 in0.0 mm
03:55 AM 64.6°F18.1°C 60.9°F16.1°C 88% Calm Calm -- 29.84 in1010.5 mb 0.00 in0.0 mm 0.00 in0.0 mm 0.00 in0.0 mm
04:00 AM 64.6°F18.1°C 60.9°F16.1°C 88% Calm Calm -- 29.84 in1010.5 mb 0.00 in0.0 mm 0.00 in0.0 mm 0.00 in0.0 mm
04:05 AM 64.6°F18.1°C 60.9°F16.1°C 88% Calm Calm -- 29.83 in1010.2 mb 0.00 in0.0 mm 0.00 in0.0 mm 0.00 in0.0 mm
04:10 AM 64.5°F18.1°C 60.8°F16.0°C 88% Calm Calm 2.0 mph3.2 kmh 29.83 in1010.2 mb 0.00 in0.0 mm 0.00 in0.0 mm 0.00 in0.0 mm
04:15 AM 64.4°F18.0°C 60.7°F15.9°C 88% 3.0 mph SE4.8 kmh SE 3.0 mph4.8 kmh 29.83 in1010.2 mb 0.00 in0.0 mm 0.00 in0.0 mm 0.00 in0.0 mm
04:20 AM 64.4°F18.0°C 60.7°F15.9°C 88% Calm Calm 2.0 mph3.2 kmh 29.83 in1010.2 mb 0.00 in0.0 mm 0.00 in0.0 mm 0.00 in0.0 mm
04:25 AM 64.4°F18.0°C 60.7°F15.9°C 88% Calm Calm -- 29.83 in1010.2 mb 0.00 in0.0 mm 0.00 in0.0 mm 0.00 in0.0 mm
04:30 AM 64.4°F18.0°C 60.7°F15.9°C 88% Calm Calm -- 29.83 in1010.2 mb 0.00 in0.0 mm 0.00 in0.0 mm 0.00 in0.0 mm
04:35 AM 64.4°F18.0°C 60.7°F15.9°C 88% Calm Calm -- 29.83 in1010.2 mb 0.00 in0.0 mm 0.00 in0.0 mm 0.00 in0.0 mm
04:40 AM 64.4°F18.0°C 60.7°F15.9°C 88% Calm Calm -- 29.82 in1009.8 mb 0.00 in0.0 mm 0.00 in0.0 mm 0.00 in0.0 mm
04:45 AM 64.3°F17.9°C 60.6°F15.9°C 88% Calm Calm -- 29.82 in1009.8 mb 0.00 in0.0 mm 0.00 in0.0 mm 0.00 in0.0 mm
04:50 AM 64.3°F17.9°C 60.6°F15.9°C 88% Calm Calm -- 29.82 in1009.8 mb 0.00 in0.0 mm 0.00 in0.0 mm 0.00 in0.0 mm
04:55 AM 64.4°F18.0°C 60.7°F15.9°C 88% Calm Calm -- 29.82 in1009.8 mb 0.00 in0.0 mm 0.00 in0.0 mm 0.00 in0.0 mm
05:00 AM 64.4°F18.0°C 60.7°F15.9°C 88% Calm Calm -- 29.82 in1009.8 mb 0.00 in0.0 mm 0.00 in0.0 mm 0.00 in0.0 mm
05:05 AM 64.3°F17.9°C 60.6°F15.9°C 88% Calm Calm -- 29.82 in1009.8 mb 0.00 in0.0 mm 0.00 in0.0 mm 0.00 in0.0 mm
05:10 AM 64.3°F17.9°C 60.6°F15.9°C 88% Calm Calm -- 29.82 in1009.8 mb 0.00 in0.0 mm 0.00 in0.0 mm 0.00 in0.0 mm
05:15 AM 64.3°F17.9°C 60.6°F15.9°C 88% Calm Calm -- 29.82 in1009.8 mb 0.00 in0.0 mm 0.00 in0.0 mm 0.00 in0.0 mm
05:20 AM 64.3°F17.9°C 60.6°F15.9°C 88% Calm Calm -- 29.82 in1009.8 mb 0.00 in0.0 mm 0.00 in0.0 mm 0.00 in0.0 mm
05:25 AM 64.2°F17.9°C 60.2°F15.7°C 87% Calm Calm -- 29.81 in1009.5 mb 0.00 in0.0 mm 0.00 in0.0 mm 0.00 in0.0 mm
05:30 AM 64.2°F17.9°C 60.2°F15.7°C 87% Calm Calm -- 29.81 in1009.5 mb 0.00 in0.0 mm 0.00 in0.0 mm 0.00 in0.0 mm
05:35 AM 64.2°F17.9°C 60.2°F15.7°C 87% Calm Calm -- 29.81 in1009.5 mb 0.00 in0.0 mm 0.00 in0.0 mm 0.00 in0.0 mm
05:40 AM 64.3°F17.9°C 60.3°F15.7°C 87% Calm Calm -- 29.81 in1009.5 mb 0.00 in0.0 mm 0.00 in0.0 mm 0.00 in0.0 mm
05:45 AM 64.3°F17.9°C 60.3°F15.7°C 87% Calm Calm -- 29.81 in1009.5 mb 0.00 in0.0 mm 0.00 in0.0 mm 0.00 in0.0 mm
05:50 AM 64.4°F18.0°C 60.4°F15.8°C 87% Calm Calm -- 29.81 in1009.5 mb 0.00 in0.0 mm 0.00 in0.0 mm 0.00 in0.0 mm
05:55 AM 64.4°F18.0°C 60.4°F15.8°C 87% Calm Calm 4.0 mph6.4 kmh 29.81 in1009.5 mb 0.00 in0.0 mm 0.00 in0.0 mm 0.00 in0.0 mm
06:00 AM 64.5°F18.1°C 60.5°F15.8°C 87% Calm Calm 3.0 mph4.8 kmh 29.81 in1009.5 mb 0.00 in0.0 mm 0.00 in0.0 mm 0.00 in0.0 mm
06:05 AM 64.5°F18.1°C 60.5°F15.8°C 87% Calm Calm 4.0 mph6.4 kmh 29.81 in1009.5 mb 0.00 in0.0 mm 0.00 in0.0 mm 0.00 in0.0 mm
06:10 AM 64.7°F18.2°C 60.7°F15.9°C 87% Calm Calm 5.0 mph8.0 kmh 29.81 in1009.5 mb 0.00 in0.0 mm 0.00 in0.0 mm 0.00 in0.0 mm
06:15 AM 64.7°F18.2°C 60.4°F15.8°C 86% Calm Calm -- 29.81 in1009.5 mb 0.00 in0.0 mm 0.00 in0.0 mm 0.00 in0.0 mm
06:20 AM 64.8°F18.2°C 60.5°F15.8°C 86% 2.0 mph SE3.2 kmh SE 6.0 mph9.7 kmh 29.81 in1009.5 mb 0.00 in0.0 mm 0.00 in0.0 mm 0.00 in0.0 mm
06:25 AM 64.9°F18.3°C 60.6°F15.9°C 86% Calm Calm 7.0 mph11.3 kmh 29.81 in1009.5 mb 0.00 in0.0 mm 0.00 in0.0 mm 0.00 in0.0 mm
06:30 AM 65.0°F18.3°C 60.7°F15.9°C 86% Calm Calm -- 29.81 in1009.5 mb 0.00 in0.0 mm 0.00 in0.0 mm 0.00 in0.0 mm
06:35 AM 65.1°F18.4°C 60.8°F16.0°C 86% Calm Calm 5.0 mph8.0 kmh 29.81 in1009.5 mb 0.00 in0.0 mm 0.00 in0.0 mm 0.00 in0.0 mm
06:40 AM 65.1°F18.4°C 60.4°F15.8°C 85% Calm Calm -- 29.81 in1009.5 mb 0.00 in0.0 mm 0.00 in0.0 mm 0.00 in0.0 mm
06:45 AM 65.1°F18.4°C 60.4°F15.8°C 85% Calm Calm 1.0 mph1.6 kmh 29.81 in1009.5 mb 0.00 in0.0 mm 0.00 in0.0 mm 0.00 in0.0 mm
06:50 AM 65.2°F18.4°C 60.5°F15.8°C 85% Calm Calm -- 29.81 in1009.5 mb 0.00 in0.0 mm 0.00 in0.0 mm 0.00 in0.0 mm
06:55 AM 65.3°F18.5°C 60.6°F15.9°C 85% 2.0 mph SSE3.2 kmh SSE 4.0 mph6.4 kmh 29.81 in1009.5 mb 0.00 in0.0 mm 0.00 in0.0 mm 0.00 in0.0 mm
07:00 AM 65.4°F18.6°C 60.7°F15.9°C 85% 3.0 mph SSE4.8 kmh SSE 6.0 mph9.7 kmh 29.81 in1009.5 mb 0.00 in0.0 mm 0.00 in0.0 mm 0.00 in0.0 mm
07:05 AM 65.6°F18.7°C 60.9°F16.1°C 85% Calm Calm 5.0 mph8.0 kmh 29.81 in1009.5 mb 0.00 in0.0 mm 0.00 in0.0 mm 0.00 in0.0 mm
07:10 AM 66.0°F18.9°C 61.3°F16.3°C 85% Calm Calm 8.0 mph12.9 kmh 29.81 in1009.5 mb 0.00 in0.0 mm 0.00 in0.0 mm 0.00 in0.0 mm
07:15 AM 66.3°F19.1°C 61.6°F16.4°C 85% 3.0 mph SSE4.8 kmh SSE 8.0 mph12.9 kmh 29.81 in1009.5 mb 0.00 in0.0 mm 0.00 in0.0 mm 0.00 in0.0 mm
07:20 AM 66.5°F19.2°C 61.5°F16.4°C 84% Calm Calm 5.0 mph8.0 kmh 29.81 in1009.5 mb 0.00 in0.0 mm 0.00 in0.0 mm 0.00 in0.0 mm
07:25 AM 66.6°F19.2°C 61.6°F16.4°C 84% Calm Calm -- 29.81 in1009.5 mb 0.00 in0.0 mm 0.00 in0.0 mm 0.00 in0.0 mm
07:30 AM 66.7°F19.3°C 61.7°F16.5°C 84% Calm Calm -- 29.81 in1009.5 mb 0.00 in0.0 mm 0.00 in0.0 mm 0.00 in0.0 mm
07:35 AM 66.8°F19.3°C 61.8°F16.6°C 84% Calm Calm -- 29.81 in1009.5 mb 0.00 in0.0 mm 0.00 in0.0 mm 0.00 in0.0 mm
07:40 AM 66.9°F19.4°C 61.9°F16.6°C 84% Calm Calm 7.0 mph11.3 kmh 29.81 in1009.5 mb 0.00 in0.0 mm 0.00 in0.0 mm 0.00 in0.0 mm
07:45 AM 67.2°F19.6°C 61.8°F16.6°C 83% Calm Calm 7.0 mph11.3 kmh 29.81 in1009.5 mb 0.00 in0.0 mm 0.00 in0.0 mm 0.00 in0.0 mm
07:50 AM 67.5°F19.7°C 62.1°F16.7°C 83% Calm Calm 10.0 mph16.1 kmh 29.81 in1009.5 mb 0.00 in0.0 mm 0.00 in0.0 mm 0.00 in0.0 mm
07:55 AM 67.9°F19.9°C 62.5°F16.9°C 83% 5.0 mph SE8.0 kmh SE 10.0 mph16.1 kmh 29.80 in1009.1 mb 0.00 in0.0 mm 0.00 in0.0 mm 0.00 in0.0 mm
08:00 AM 68.4°F20.2°C 62.6°F17.0°C 82% 5.0 mph SE8.0 kmh SE 9.0 mph14.5 kmh 29.80 in1009.1 mb 0.00 in0.0 mm 0.00 in0.0 mm 0.00 in0.0 mm
08:05 AM 68.8°F20.4°C 63.0°F17.2°C 82% 7.0 mph SE11.3 kmh SE 11.0 mph17.7 kmh 29.80 in1009.1 mb 0.00 in0.0 mm 0.00 in0.0 mm 0.00 in0.0 mm
08:10 AM 68.9°F20.5°C 62.8°F17.1°C 81% 7.0 mph SE11.3 kmh SE 11.0 mph17.7 kmh 29.80 in1009.1 mb 0.00 in0.0 mm 0.00 in0.0 mm 0.00 in0.0 mm
08:15 AM 68.7°F20.4°C 62.6°F17.0°C 81% 10.0 mph SE16.1 kmh SE 10.0 mph16.1 kmh 29.80 in1009.1 mb 0.00 in0.0 mm 0.00 in0.0 mm 0.00 in0.0 mm
08:20 AM 68.6°F20.3°C 62.5°F16.9°C 81% 7.0 mph SE11.3 kmh SE 10.0 mph16.1 kmh 29.80 in1009.1 mb 0.00 in0.0 mm 0.00 in0.0 mm 0.00 in0.0 mm
08:25 AM 68.7°F20.4°C 62.9°F17.2°C 82% 4.0 mph SE6.4 kmh SE 13.0 mph20.9 kmh 29.80 in1009.1 mb 0.00 in0.0 mm 0.00 in0.0 mm 0.00 in0.0 mm
08:30 AM 68.8°F20.4°C 63.0°F17.2°C 82% Calm Calm 13.0 mph20.9 kmh 29.80 in1009.1 mb 0.00 in0.0 mm 0.00 in0.0 mm 0.00 in0.0 mm
08:35 AM 68.9°F20.5°C 63.1°F17.3°C 82% 3.0 mph SE4.8 kmh SE 12.0 mph19.3 kmh 29.80 in1009.1 mb 0.00 in0.0 mm 0.00 in0.0 mm 0.00 in0.0 mm
08:40 AM 68.9°F20.5°C 63.1°F17.3°C 82% 9.0 mph SSE14.5 kmh SSE 12.0 mph19.3 kmh 29.80 in1009.1 mb 0.00 in0.0 mm 0.00 in0.0 mm 0.00 in0.0 mm
08:45 AM 68.8°F20.4°C 63.4°F17.4°C 83% Calm Calm 14.0 mph22.5 kmh 29.80 in1009.1 mb 0.00 in0.0 mm 0.00 in0.0 mm 0.00 in0.0 mm
08:50 AM 68.7°F20.4°C 63.3°F17.4°C 83% Calm Calm 12.0 mph19.3 kmh 29.80 in1009.1 mb 0.00 in0.0 mm 0.00 in0.0 mm 0.00 in0.0 mm
08:55 AM 68.4°F20.2°C 63.3°F17.4°C 84% Calm Calm 10.0 mph16.1 kmh 29.80 in1009.1 mb 0.02 in0.5 mm 0.24 in6.1 mm 0.02 in0.5 mm
09:00 AM 68.1°F20.1°C 63.7°F17.6°C 86% 3.0 mph SSE4.8 kmh SSE 6.0 mph9.7 kmh 29.80 in1009.1 mb 0.04 in1.0 mm 0.02 in0.5 mm 0.04 in1.0 mm
09:05 AM 67.7°F19.8°C 63.3°F17.4°C 86% 3.0 mph S4.8 kmh S 5.0 mph8.0 kmh 29.81 in1009.5 mb 0.09 in2.3 mm 0.60 in15.2 mm 0.09 in2.3 mm
09:10 AM 67.5°F19.7°C 63.4°F17.4°C 87% Calm Calm 5.0 mph8.0 kmh 29.80 in1009.1 mb 0.13 in3.3 mm 0.48 in12.2 mm 0.13 in3.3 mm
09:15 AM 67.2°F19.6°C 63.5°F17.5°C 88% 11.0 mph SE17.7 kmh SE 16.0 mph25.7 kmh 29.79 in1008.8 mb 0.17 in4.3 mm 0.48 in12.2 mm 0.17 in4.3 mm
09:20 AM 66.9°F19.4°C 63.8°F17.7°C 90% Calm Calm 15.0 mph24.1 kmh 29.79 in1008.8 mb 0.18 in4.6 mm 0.12 in3.0 mm 0.18 in4.6 mm
09:25 AM 66.4°F19.1°C 63.0°F17.2°C 89% 1.0 mph S1.6 kmh S 12.0 mph19.3 kmh 29.80 in1009.1 mb 0.18 in4.6 mm 0.00 in0.0 mm 0.18 in4.6 mm
09:30 AM 65.5°F18.6°C 62.1°F16.7°C 89% 3.0 mph SE4.8 kmh SE 7.0 mph11.3 kmh 29.80 in1009.1 mb 0.22 in5.6 mm 0.48 in12.2 mm 0.22 in5.6 mm
09:35 AM 64.7°F18.2°C 61.3°F16.3°C 89% Calm Calm 5.0 mph8.0 kmh 29.80 in1009.1 mb 0.24 in6.1 mm 0.24 in6.1 mm 0.24 in6.1 mm
09:40 AM 64.5°F18.1°C 61.4°F16.3°C 90% 5.0 mph SSE8.0 kmh SSE 10.0 mph16.1 kmh 29.80 in1009.1 mb 0.24 in6.1 mm 0.00 in0.0 mm 0.24 in6.1 mm
09:45 AM 64.4°F18.0°C 61.3°F16.3°C 90% Calm Calm 8.0 mph12.9 kmh 29.79 in1008.8 mb 0.24 in6.1 mm 0.00 in0.0 mm 0.24 in6.1 mm
09:50 AM 64.4°F18.0°C 61.7°F16.5°C 91% Calm Calm 1.0 mph1.6 kmh 29.79 in1008.8 mb 0.24 in6.1 mm 0.00 in0.0 mm 0.24 in6.1 mm
09:55 AM 64.5°F18.1°C 61.8°F16.6°C 91% Calm Calm 1.0 mph1.6 kmh 29.79 in1008.8 mb 0.22 in5.6 mm 0.00 in0.0 mm 0.24 in6.1 mm
10:00 AM 64.8°F18.2°C 62.1°F16.7°C 91% 5.0 mph SE8.0 kmh SE 8.0 mph12.9 kmh 29.79 in1008.8 mb 0.20 in5.1 mm 0.00 in0.0 mm 0.24 in6.1 mm
10:05 AM 64.6°F18.1°C 61.9°F16.6°C 91% 11.0 mph ESE17.7 kmh ESE 14.0 mph22.5 kmh 29.79 in1008.8 mb 0.14 in3.6 mm 0.00 in0.0 mm 0.24 in6.1 mm
10:10 AM 64.3°F17.9°C 61.6°F16.4°C 91% Calm Calm 12.0 mph19.3 kmh 29.79 in1008.8 mb 0.10 in2.5 mm 0.00 in0.0 mm 0.24 in6.1 mm
10:15 AM 63.9°F17.7°C 61.2°F16.2°C 91% Calm Calm -- 29.79 in1008.8 mb 0.14 in3.6 mm 0.48 in12.2 mm 0.31 in7.9 mm
10:20 AM 63.9°F17.7°C 61.2°F16.2°C 91% Calm Calm 1.0 mph1.6 kmh 29.79 in1008.8 mb 0.16 in4.1 mm 0.24 in6.1 mm 0.34 in8.6 mm
10:25 AM 63.9°F17.7°C 61.2°F16.2°C 91% 5.0 mph SSE8.0 kmh SSE 5.0 mph8.0 kmh 29.78 in1008.5 mb 0.16 in4.1 mm 0.00 in0.0 mm 0.34 in8.6 mm
10:30 AM 64.3°F17.9°C 61.9°F16.6°C 92% 9.0 mph SE14.5 kmh SE 11.0 mph17.7 kmh 29.78 in1008.5 mb 0.12 in3.0 mm 0.00 in0.0 mm 0.34 in8.6 mm
10:35 AM 64.4°F18.0°C 62.0°F16.7°C 92% 5.0 mph SE8.0 kmh SE 13.0 mph20.9 kmh 29.78 in1008.5 mb 0.10 in2.5 mm 0.00 in0.0 mm 0.34 in8.6 mm
10:40 AM 64.3°F17.9°C 61.6°F16.4°C 91% 8.0 mph SE12.9 kmh SE 13.0 mph20.9 kmh 29.78 in1008.5 mb 0.10 in2.5 mm 0.00 in0.0 mm 0.34 in8.6 mm
10:45 AM 64.0°F17.8°C 61.3°F16.3°C 91% Calm Calm 10.0 mph16.1 kmh 29.77 in1008.1 mb 0.10 in2.5 mm 0.00 in0.0 mm 0.34 in8.6 mm
10:50 AM 64.2°F17.9°C 61.5°F16.4°C 91% Calm Calm -- 29.78 in1008.5 mb 0.10 in2.5 mm 0.00 in0.0 mm 0.34 in8.6 mm
10:55 AM 64.4°F18.0°C 62.0°F16.7°C 92% 1.0 mph ENE1.6 kmh ENE 7.0 mph11.3 kmh 29.78 in1008.5 mb 0.10 in2.5 mm 0.00 in0.0 mm 0.34 in8.6 mm
11:00 AM 64.7°F18.2°C 62.0°F16.7°C 91% 7.0 mph SSE11.3 kmh SSE 7.0 mph11.3 kmh 29.78 in1008.5 mb 0.10 in2.5 mm 0.00 in0.0 mm 0.34 in8.6 mm
11:05 AM 64.6°F18.1°C 61.9°F16.6°C 91% 5.0 mph SSE8.0 kmh SSE 8.0 mph12.9 kmh 29.78 in1008.5 mb 0.10 in2.5 mm 0.00 in0.0 mm 0.34 in8.6 mm
11:10 AM 65.0°F18.3°C 62.6°F17.0°C 92% Calm Calm 8.0 mph12.9 kmh 29.78 in1008.5 mb 0.10 in2.5 mm 0.00 in0.0 mm 0.34 in8.6 mm
11:15 AM 65.4°F18.6°C 63.0°F17.2°C 92% 1.0 mph S1.6 kmh S 10.0 mph16.1 kmh 29.78 in1008.5 mb 0.03 in0.8 mm 0.00 in0.0 mm 0.34 in8.6 mm
11:20 AM 66.0°F18.9°C 63.6°F17.6°C 92% 2.0 mph S3.2 kmh S 7.0 mph11.3 kmh 29.78 in1008.5 mb 0.00 in0.0 mm 0.00 in0.0 mm 0.34 in8.6 mm
11:25 AM 66.6°F19.2°C 64.1°F17.8°C 92% Calm Calm 2.0 mph3.2 kmh 29.78 in1008.5 mb 0.00 in0.0 mm 0.00 in0.0 mm 0.34 in8.6 mm
11:30 AM 67.0°F19.4°C 64.5°F18.1°C 92% Calm Calm -- 29.77 in1008.1 mb 0.00 in0.0 mm 0.00 in0.0 mm 0.34 in8.6 mm
11:35 AM 67.7°F19.8°C 65.2°F18.4°C 92% Calm Calm 8.0 mph12.9 kmh 29.77 in1008.1 mb 0.00 in0.0 mm 0.00 in0.0 mm 0.34 in8.6 mm
11:40 AM 68.5°F20.3°C 65.7°F18.7°C 91% 2.0 mph N3.2 kmh N 9.0 mph14.5 kmh 29.77 in1008.1 mb 0.00 in0.0 mm 0.00 in0.0 mm 0.34 in8.6 mm
11:45 AM 69.6°F20.9°C 65.5°F18.6°C 87% Calm Calm 12.0 mph19.3 kmh 29.77 in1008.1 mb 0.00 in0.0 mm 0.00 in0.0 mm 0.34 in8.6 mm
11:50 AM 70.7°F21.5°C 64.9°F18.3°C 82% 1.0 mph NNW1.6 kmh NNW 9.0 mph14.5 kmh 29.77 in1008.1 mb 0.00 in0.0 mm 0.00 in0.0 mm 0.34 in8.6 mm
11:55 AM 71.4°F21.9°C 64.1°F17.8°C 78% 1.0 mph WSW1.6 kmh WSW 11.0 mph17.7 kmh 29.77 in1008.1 mb 0.00 in0.0 mm 0.00 in0.0 mm 0.34 in8.6 mm
12:00 PM 71.9°F22.2°C 64.2°F17.9°C 77% 3.0 mph NW4.8 kmh NW 6.0 mph9.7 kmh 29.77 in1008.1 mb 0.00 in0.0 mm 0.00 in0.0 mm 0.34 in8.6 mm
12:05 PM 72.3°F22.4°C 63.5°F17.5°C 74% 1.0 mph NW1.6 kmh NW 11.0 mph17.7 kmh 29.76 in1007.8 mb 0.00 in0.0 mm 0.00 in0.0 mm 0.34 in8.6 mm
12:10 PM 72.8°F22.7°C 64.0°F17.8°C 74% Calm Calm 6.0 mph9.7 kmh 29.76 in1007.8 mb 0.00 in0.0 mm 0.00 in0.0 mm 0.34 in8.6 mm
12:15 PM 73.0°F22.8°C 63.4°F17.4°C 72% 1.0 mph NE1.6 kmh NE 14.0 mph22.5 kmh 29.76 in1007.8 mb 0.00 in0.0 mm 0.00 in0.0 mm 0.34 in8.6 mm
12:20 PM 73.0°F22.8°C 62.6°F17.0°C 70% 3.0 mph WSW4.8 kmh WSW 8.0 mph12.9 kmh 29.76 in1007.8 mb 0.00 in0.0 mm 0.00 in0.0 mm 0.34 in8.6 mm
12:25 PM 73.4°F23.0°C 63.8°F17.7°C 72% 3.0 mph SW4.8 kmh SW 10.0 mph16.1 kmh 29.76 in1007.8 mb 0.00 in0.0 mm 0.00 in0.0 mm 0.34 in8.6 mm
12:30 PM 73.6°F23.1°C 63.6°F17.6°C 71% 1.0 mph S1.6 kmh S 13.0 mph20.9 kmh 29.76 in1007.8 mb 0.00 in0.0 mm 0.00 in0.0 mm 0.34 in8.6 mm
12:35 PM 73.8°F23.2°C 62.9°F17.2°C 69% 2.0 mph SW3.2 kmh SW 16.0 mph25.7 kmh 29.76 in1007.8 mb 0.00 in0.0 mm 0.00 in0.0 mm 0.34 in8.6 mm
12:40 PM 74.0°F23.3°C 63.5°F17.5°C 70% 4.0 mph E6.4 kmh E 13.0 mph20.9 kmh 29.76 in1007.8 mb 0.00 in0.0 mm 0.00 in0.0 mm 0.34 in8.6 mm
12:45 PM 74.1°F23.4°C 63.6°F17.6°C 70% 2.0 mph N3.2 kmh N 12.0 mph19.3 kmh 29.75 in1007.5 mb 0.00 in0.0 mm 0.00 in0.0 mm 0.34 in8.6 mm
12:50 PM 74.0°F23.3°C 62.7°F17.1°C 68% 4.0 mph NE6.4 kmh NE 9.0 mph14.5 kmh 29.76 in1007.8 mb 0.00 in0.0 mm 0.00 in0.0 mm 0.34 in8.6 mm
12:55 PM 73.8°F23.2°C 62.5°F16.9°C 68% 2.0 mph E3.2 kmh E 10.0 mph16.1 kmh 29.75 in1007.5 mb 0.00 in0.0 mm 0.00 in0.0 mm 0.34 in8.6 mm
01:00 PM 73.9°F23.3°C 62.6°F17.0°C 68% Calm Calm 17.0 mph27.4 kmh 29.75 in1007.5 mb 0.00 in0.0 mm 0.00 in0.0 mm 0.34 in8.6 mm
01:05 PM 74.3°F23.5°C 62.6°F17.0°C 67% Calm Calm 10.0 mph16.1 kmh 29.75 in1007.5 mb 0.00 in0.0 mm 0.00 in0.0 mm 0.34 in8.6 mm
01:10 PM 74.8°F23.8°C 63.0°F17.2°C 67% 6.0 mph NNW9.7 kmh NNW 12.0 mph19.3 kmh 29.75 in1007.5 mb 0.00 in0.0 mm 0.00 in0.0 mm 0.34 in8.6 mm
01:15 PM 74.8°F23.8°C 62.6°F17.0°C 66% 1.0 mph SSE1.6 kmh SSE 10.0 mph16.1 kmh 29.75 in1007.5 mb 0.00 in0.0 mm 0.00 in0.0 mm 0.34 in8.6 mm
01:20 PM 74.6°F23.7°C 62.4°F16.9°C 66% 3.0 mph WNW4.8 kmh WNW 9.0 mph14.5 kmh 29.75 in1007.5 mb 0.00 in0.0 mm 0.00 in0.0 mm 0.34 in8.6 mm
01:25 PM 74.4°F23.6°C 62.2°F16.8°C 66% 3.0 mph SW4.8 kmh SW 11.0 mph17.7 kmh 29.75 in1007.5 mb 0.00 in0.0 mm 0.00 in0.0 mm 0.34 in8.6 mm
01:30 PM 74.3°F23.5°C 60.8°F16.0°C 63% Calm Calm 8.0 mph12.9 kmh 29.74 in1007.1 mb 0.00 in0.0 mm 0.00 in0.0 mm 0.34 in8.6 mm
01:35 PM 74.2°F23.4°C 62.0°F16.7°C 66% Calm Calm 10.0 mph16.1 kmh 29.74 in1007.1 mb 0.00 in0.0 mm 0.00 in0.0 mm 0.34 in8.6 mm
01:40 PM 74.2°F23.4°C 61.6°F16.4°C 65% 10.0 mph SSW16.1 kmh SSW 14.0 mph22.5 kmh 29.74 in1007.1 mb 0.00 in0.0 mm 0.00 in0.0 mm 0.34 in8.6 mm
01:45 PM 74.3°F23.5°C 60.8°F16.0°C 63% 2.0 mph SE3.2 kmh SE 11.0 mph17.7 kmh 29.74 in1007.1 mb 0.00 in0.0 mm 0.00 in0.0 mm 0.34 in8.6 mm
01:50 PM 74.4°F23.6°C 60.9°F16.1°C 63% 1.0 mph S1.6 kmh S 13.0 mph20.9 kmh 29.74 in1007.1 mb 0.00 in0.0 mm 0.00 in0.0 mm 0.34 in8.6 mm
01:55 PM 74.4°F23.6°C 59.5°F15.3°C 60% 5.0 mph NNW8.0 kmh NNW 13.0 mph20.9 kmh 29.74 in1007.1 mb 0.00 in0.0 mm 0.00 in0.0 mm 0.34 in8.6 mm
02:00 PM 74.5°F23.6°C 58.7°F14.8°C 58% 3.0 mph N4.8 kmh N 14.0 mph22.5 kmh 29.74 in1007.1 mb 0.00 in0.0 mm 0.00 in0.0 mm 0.34 in8.6 mm
02:05 PM 74.8°F23.8°C 59.0°F15.0°C 58% 2.0 mph SW3.2 kmh SW 18.0 mph29.0 kmh 29.74 in1007.1 mb 0.00 in0.0 mm 0.00 in0.0 mm 0.34 in8.6 mm
02:10 PM 74.8°F23.8°C 59.0°F15.0°C 58% 2.0 mph NNE3.2 kmh NNE 9.0 mph14.5 kmh 29.74 in1007.1 mb 0.00 in0.0 mm 0.00 in0.0 mm 0.34 in8.6 mm
02:15 PM 74.7°F23.7°C 59.8°F15.4°C 60% 6.0 mph NE9.7 kmh NE 8.0 mph12.9 kmh 29.74 in1007.1 mb 0.00 in0.0 mm 0.00 in0.0 mm 0.34 in8.6 mm
02:20 PM 74.8°F23.8°C 59.9°F15.5°C 60% 2.0 mph E3.2 kmh E 13.0 mph20.9 kmh 29.74 in1007.1 mb 0.00 in0.0 mm 0.00 in0.0 mm 0.34 in8.6 mm
02:25 PM 74.8°F23.8°C 59.9°F15.5°C 60% 3.0 mph N4.8 kmh N 12.0 mph19.3 kmh 29.74 in1007.1 mb 0.00 in0.0 mm 0.00 in0.0 mm 0.34 in8.6 mm
02:30 PM 74.7°F23.7°C 60.3°F15.7°C 61% 2.0 mph SSE3.2 kmh SSE 8.0 mph12.9 kmh 29.73 in1006.8 mb 0.00 in0.0 mm 0.00 in0.0 mm 0.34 in8.6 mm
02:35 PM 74.8°F23.8°C 59.9°F15.5°C 60% Calm Calm 9.0 mph14.5 kmh 29.73 in1006.8 mb 0.00 in0.0 mm 0.00 in0.0 mm 0.34 in8.6 mm
02:40 PM 74.5°F23.6°C 60.1°F15.6°C 61% 2.0 mph SE3.2 kmh SE 10.0 mph16.1 kmh 29.73 in1006.8 mb 0.00 in0.0 mm 0.00 in0.0 mm 0.34 in8.6 mm
02:45 PM 74.3°F23.5°C 60.8°F16.0°C 63% 1.0 mph NW1.6 kmh NW 9.0 mph14.5 kmh 29.73 in1006.8 mb 0.00 in0.0 mm 0.00 in0.0 mm 0.34 in8.6 mm
02:50 PM 74.3°F23.5°C 61.3°F16.3°C 64% 3.0 mph WSW4.8 kmh WSW 14.0 mph22.5 kmh 29.73 in1006.8 mb 0.00 in0.0 mm 0.00 in0.0 mm 0.34 in8.6 mm
02:55 PM 74.2°F23.4°C 61.6°F16.4°C 65% 3.0 mph NNE4.8 kmh NNE 12.0 mph19.3 kmh 29.73 in1006.8 mb 0.00 in0.0 mm 0.00 in0.0 mm 0.34 in8.6 mm
03:00 PM 74.3°F23.5°C 59.9°F15.5°C 61% 4.0 mph W6.4 kmh W 13.0 mph20.9 kmh 29.73 in1006.8 mb 0.00 in0.0 mm 0.00 in0.0 mm 0.34 in8.6 mm
03:05 PM 74.7°F23.7°C 58.9°F14.9°C 58% 3.0 mph S4.8 kmh S 11.0 mph17.7 kmh 29.73 in1006.8 mb 0.00 in0.0 mm 0.00 in0.0 mm 0.34 in8.6 mm
03:10 PM 74.8°F23.8°C 58.5°F14.7°C 57% 4.0 mph NW6.4 kmh NW 9.0 mph14.5 kmh 29.73 in1006.8 mb 0.00 in0.0 mm 0.00 in0.0 mm 0.34 in8.6 mm
03:15 PM 74.6°F23.7°C 58.3°F14.6°C 57% 2.0 mph NNW3.2 kmh NNW 10.0 mph16.1 kmh 29.73 in1006.8 mb 0.00 in0.0 mm 0.00 in0.0 mm 0.34 in8.6 mm
03:20 PM 74.6°F23.7°C 58.3°F14.6°C 57% 3.0 mph SSW4.8 kmh SSW 8.0 mph12.9 kmh 29.73 in1006.8 mb 0.00 in0.0 mm 0.00 in0.0 mm 0.34 in8.6 mm
03:25 PM 74.6°F23.7°C 58.8°F14.9°C 58% 3.0 mph E4.8 kmh E 11.0 mph17.7 kmh 29.73 in1006.8 mb 0.00 in0.0 mm 0.00 in0.0 mm 0.34 in8.6 mm
03:30 PM 74.6°F23.7°C 59.3°F15.2°C 59% 2.0 mph NE3.2 kmh NE 10.0 mph16.1 kmh 29.73 in1006.8 mb 0.00 in0.0 mm 0.00 in0.0 mm 0.34 in8.6 mm
03:35 PM 74.4°F23.6°C 59.1°F15.1°C 59% 2.0 mph S3.2 kmh S 11.0 mph17.7 kmh 29.73 in1006.8 mb 0.00 in0.0 mm 0.00 in0.0 mm 0.34 in8.6 mm
03:40 PM 74.2°F23.4°C 58.9°F14.9°C 59% 4.0 mph ENE6.4 kmh ENE 7.0 mph11.3 kmh 29.73 in1006.8 mb 0.00 in0.0 mm 0.00 in0.0 mm 0.34 in8.6 mm
03:45 PM 74.0°F23.3°C 58.7°F14.8°C 59% 3.0 mph ESE4.8 kmh ESE 7.0 mph11.3 kmh 29.73 in1006.8 mb 0.00 in0.0 mm 0.00 in0.0 mm 0.34 in8.6 mm
03:50 PM 73.9°F23.3°C 58.6°F14.8°C 59% 1.0 mph NW1.6 kmh NW 7.0 mph11.3 kmh 29.73 in1006.8 mb 0.00 in0.0 mm 0.00 in0.0 mm 0.34 in8.6 mm
03:55 PM 73.8°F23.2°C 59.0°F15.0°C 60% Calm Calm 8.0 mph12.9 kmh 29.72 in1006.4 mb 0.00 in0.0 mm 0.00 in0.0 mm 0.34 in8.6 mm
04:00 PM 73.8°F23.2°C 58.5°F14.7°C 59% 5.0 mph E8.0 kmh E 11.0 mph17.7 kmh 29.72 in1006.4 mb 0.00 in0.0 mm 0.00 in0.0 mm 0.34 in8.6 mm
04:05 PM 73.8°F23.2°C 59.0°F15.0°C 60% 6.0 mph W9.7 kmh W 14.0 mph22.5 kmh 29.73 in1006.8 mb 0.00 in0.0 mm 0.00 in0.0 mm 0.34 in8.6 mm
04:10 PM 73.5°F23.1°C 58.7°F14.8°C 60% 7.0 mph SW11.3 kmh SW 11.0 mph17.7 kmh 29.73 in1006.8 mb 0.00 in0.0 mm 0.00 in0.0 mm 0.34 in8.6 mm
04:15 PM 73.4°F23.0°C 58.1°F14.5°C 59% 4.0 mph N6.4 kmh N 11.0 mph17.7 kmh 29.73 in1006.8 mb 0.00 in0.0 mm 0.00 in0.0 mm 0.34 in8.6 mm
04:20 PM 73.4°F23.0°C 58.6°F14.8°C 60% 5.0 mph SSW8.0 kmh SSW 12.0 mph19.3 kmh 29.73 in1006.8 mb 0.00 in0.0 mm 0.00 in0.0 mm 0.34 in8.6 mm
04:25 PM 73.4°F23.0°C 58.6°F14.8°C 60% 5.0 mph S8.0 kmh S 10.0 mph16.1 kmh 29.73 in1006.8 mb 0.00 in0.0 mm 0.00 in0.0 mm 0.34 in8.6 mm
04:30 PM 73.3°F22.9°C 59.4°F15.2°C 62% Calm Calm 12.0 mph19.3 kmh 29.73 in1006.8 mb 0.00 in0.0 mm 0.00 in0.0 mm 0.34 in8.6 mm
04:35 PM 73.1°F22.8°C 59.7°F15.4°C 63% 3.0 mph SSW4.8 kmh SSW 4.0 mph6.4 kmh 29.73 in1006.8 mb 0.00 in0.0 mm 0.00 in0.0 mm 0.34 in8.6 mm
04:40 PM 72.8°F22.7°C 59.4°F15.2°C 63% 4.0 mph WSW6.4 kmh WSW 10.0 mph16.1 kmh 29.73 in1006.8 mb 0.00 in0.0 mm 0.00 in0.0 mm 0.34 in8.6 mm
04:45 PM 72.4°F22.4°C 59.0°F15.0°C 63% 2.0 mph E3.2 kmh E 8.0 mph12.9 kmh 29.73 in1006.8 mb 0.00 in0.0 mm 0.00 in0.0 mm 0.34 in8.6 mm
04:50 PM 72.1°F22.3°C 59.2°F15.1°C 64% Calm Calm 9.0 mph14.5 kmh 29.74 in1007.1 mb 0.00 in0.0 mm 0.00 in0.0 mm 0.34 in8.6 mm
04:55 PM 71.9°F22.2°C 59.4°F15.2°C 65% 9.0 mph WSW14.5 kmh WSW 9.0 mph14.5 kmh 29.73 in1006.8 mb 0.00 in0.0 mm 0.00 in0.0 mm 0.34 in8.6 mm
05:00 PM 71.8°F22.1°C 59.3°F15.2°C 65% 2.0 mph SW3.2 kmh SW 6.0 mph9.7 kmh 29.74 in1007.1 mb 0.00 in0.0 mm 0.00 in0.0 mm 0.34 in8.6 mm
05:05 PM 71.5°F21.9°C 59.1°F15.1°C 65% 3.0 mph ESE4.8 kmh ESE 7.0 mph11.3 kmh 29.74 in1007.1 mb 0.00 in0.0 mm 0.00 in0.0 mm 0.34 in8.6 mm
05:10 PM 71.3°F21.8°C 59.3°F15.2°C 66% 1.0 mph SSE1.6 kmh SSE 11.0 mph17.7 kmh 29.74 in1007.1 mb 0.00 in0.0 mm 0.00 in0.0 mm 0.34 in8.6 mm
05:15 PM 71.1°F21.7°C 59.1°F15.1°C 66% 3.0 mph WNW4.8 kmh WNW 7.0 mph11.3 kmh 29.74 in1007.1 mb 0.00 in0.0 mm 0.00 in0.0 mm 0.34 in8.6 mm
05:20 PM 70.8°F21.6°C 58.8°F14.9°C 66% Calm Calm 14.0 mph22.5 kmh 29.74 in1007.1 mb 0.00 in0.0 mm 0.00 in0.0 mm 0.34 in8.6 mm
05:25 PM 70.6°F21.4°C 58.6°F14.8°C 66% 2.0 mph NE3.2 kmh NE 11.0 mph17.7 kmh 29.74 in1007.1 mb 0.00 in0.0 mm 0.00 in0.0 mm 0.34 in8.6 mm
05:30 PM 70.5°F21.4°C 58.5°F14.7°C 66% 1.0 mph SE1.6 kmh SE 12.0 mph19.3 kmh 29.74 in1007.1 mb 0.00 in0.0 mm 0.00 in0.0 mm 0.34 in8.6 mm
05:35 PM 70.3°F21.3°C 57.9°F14.4°C 65% 3.0 mph SE4.8 kmh SE 9.0 mph14.5 kmh 29.74 in1007.1 mb 0.00 in0.0 mm 0.00 in0.0 mm 0.34 in8.6 mm
05:40 PM 70.1°F21.2°C 57.7°F14.3°C 65% 6.0 mph SW9.7 kmh SW 9.0 mph14.5 kmh 29.74 in1007.1 mb 0.00 in0.0 mm 0.00 in0.0 mm 0.34 in8.6 mm
05:45 PM 69.9°F21.1°C 57.1°F13.9°C 64% 1.0 mph NNE1.6 kmh NNE 7.0 mph11.3 kmh 29.74 in1007.1 mb 0.00 in0.0 mm 0.00 in0.0 mm 0.34 in8.6 mm
05:50 PM 69.7°F20.9°C 56.9°F13.8°C 64% 4.0 mph WNW6.4 kmh WNW 8.0 mph12.9 kmh 29.75 in1007.5 mb 0.00 in0.0 mm 0.00 in0.0 mm 0.34 in8.6 mm
05:55 PM 69.5°F20.8°C 56.3°F13.5°C 63% 3.0 mph NW4.8 kmh NW 4.0 mph6.4 kmh 29.75 in1007.5 mb 0.00 in0.0 mm 0.00 in0.0 mm 0.34 in8.6 mm
06:00 PM 69.4°F20.8°C 55.8°F13.2°C 62% 1.0 mph NE1.6 kmh NE 5.0 mph8.0 kmh 29.74 in1007.1 mb 0.00 in0.0 mm 0.00 in0.0 mm 0.34 in8.6 mm
06:05 PM 69.3°F20.7°C 56.1°F13.4°C 63% 3.0 mph ENE4.8 kmh ENE 6.0 mph9.7 kmh 29.74 in1007.1 mb 0.00 in0.0 mm 0.00 in0.0 mm 0.34 in8.6 mm
06:10 PM 69.2°F20.7°C 56.0°F13.3°C 63% Calm Calm 12.0 mph19.3 kmh 29.75 in1007.5 mb 0.00 in0.0 mm 0.00 in0.0 mm 0.34 in8.6 mm
06:15 PM 69.2°F20.7°C 56.0°F13.3°C 63% 4.0 mph SE6.4 kmh SE 10.0 mph16.1 kmh 29.74 in1007.1 mb 0.00 in0.0 mm 0.00 in0.0 mm 0.34 in8.6 mm
06:20 PM 69.1°F20.6°C 56.3°F13.5°C 64% 1.0 mph S1.6 kmh S 9.0 mph14.5 kmh 29.75 in1007.5 mb 0.00 in0.0 mm 0.00 in0.0 mm 0.34 in8.6 mm
06:25 PM 69.1°F20.6°C 56.8°F13.8°C 65% Calm Calm 7.0 mph11.3 kmh 29.74 in1007.1 mb 0.00 in0.0 mm 0.00 in0.0 mm 0.34 in8.6 mm
06:30 PM 69.2°F20.7°C 57.3°F14.1°C 66% 1.0 mph NW1.6 kmh NW 3.0 mph4.8 kmh 29.75 in1007.5 mb 0.00 in0.0 mm 0.00 in0.0 mm 0.34 in8.6 mm
06:35 PM 69.1°F20.6°C 57.2°F14.0°C 66% 2.0 mph WNW3.2 kmh WNW 9.0 mph14.5 kmh 29.75 in1007.5 mb 0.00 in0.0 mm 0.00 in0.0 mm 0.34 in8.6 mm
06:40 PM 69.0°F20.6°C 56.7°F13.7°C 65% 2.0 mph NW3.2 kmh NW 7.0 mph11.3 kmh 29.75 in1007.5 mb 0.00 in0.0 mm 0.00 in0.0 mm 0.34 in8.6 mm
06:45 PM 69.0°F20.6°C 57.1°F13.9°C 66% 1.0 mph W1.6 kmh W 10.0 mph16.1 kmh 29.75 in1007.5 mb 0.00 in0.0 mm 0.00 in0.0 mm 0.34 in8.6 mm
06:50 PM 68.9°F20.5°C 57.0°F13.9°C 66% Calm Calm 9.0 mph14.5 kmh 29.75 in1007.5 mb 0.00 in0.0 mm 0.00 in0.0 mm 0.34 in8.6 mm
06:55 PM 68.8°F20.4°C 56.5°F13.6°C 65% 3.0 mph ESE4.8 kmh ESE 12.0 mph19.3 kmh 29.75 in1007.5 mb 0.00 in0.0 mm 0.00 in0.0 mm 0.34 in8.6 mm
07:00 PM 68.8°F20.4°C 56.5°F13.6°C 65% 6.0 mph SW9.7 kmh SW 8.0 mph12.9 kmh 29.75 in1007.5 mb 0.00 in0.0 mm 0.00 in0.0 mm 0.34 in8.6 mm
07:05 PM 68.8°F20.4°C 56.1°F13.4°C 64% 2.0 mph SSW3.2 kmh SSW 8.0 mph12.9 kmh 29.75 in1007.5 mb 0.00 in0.0 mm 0.00 in0.0 mm 0.34 in8.6 mm
07:10 PM 68.8°F20.4°C 56.1°F13.4°C 64% 1.0 mph WNW1.6 kmh WNW 4.0 mph6.4 kmh 29.75 in1007.5 mb 0.00 in0.0 mm 0.00 in0.0 mm 0.34 in8.6 mm
07:15 PM 68.7°F20.4°C 55.5°F13.1°C 63% 1.0 mph SW1.6 kmh SW 7.0 mph11.3 kmh 29.75 in1007.5 mb 0.00 in0.0 mm 0.00 in0.0 mm 0.34 in8.6 mm
07:20 PM 68.7°F20.4°C 55.5°F13.1°C 63% 3.0 mph NE4.8 kmh NE 7.0 mph11.3 kmh 29.75 in1007.5 mb 0.00 in0.0 mm 0.00 in0.0 mm 0.34 in8.6 mm
07:25 PM 68.8°F20.4°C 56.1°F13.4°C 64% 5.0 mph WNW8.0 kmh WNW 8.0 mph12.9 kmh 29.75 in1007.5 mb 0.00 in0.0 mm 0.00 in0.0 mm 0.34 in8.6 mm
07:30 PM 68.7°F20.4°C 56.8°F13.8°C 66% 1.0 mph SSE1.6 kmh SSE 8.0 mph12.9 kmh 29.75 in1007.5 mb 0.00 in0.0 mm 0.00 in0.0 mm 0.34 in8.6 mm
07:35 PM 68.6°F20.3°C 56.7°F13.7°C 66% 1.0 mph S1.6 kmh S 10.0 mph16.1 kmh 29.75 in1007.5 mb 0.00 in0.0 mm 0.00 in0.0 mm 0.34 in8.6 mm
07:40 PM 68.4°F20.2°C 55.3°F12.9°C 63% 2.0 mph NE3.2 kmh NE 12.0 mph19.3 kmh 29.75 in1007.5 mb 0.00 in0.0 mm 0.00 in0.0 mm 0.34 in8.6 mm
07:45 PM 68.3°F20.2°C 54.3°F12.4°C 61% Calm Calm 9.0 mph14.5 kmh 29.75 in1007.5 mb 0.00 in0.0 mm 0.00 in0.0 mm 0.34 in8.6 mm
07:50 PM 68.3°F20.2°C 54.3°F12.4°C 61% 1.0 mph NNE1.6 kmh NNE 9.0 mph14.5 kmh 29.76 in1007.8 mb 0.00 in0.0 mm 0.00 in0.0 mm 0.34 in8.6 mm
07:55 PM 68.2°F20.1°C 53.7°F12.1°C 60% 3.0 mph ENE4.8 kmh ENE 12.0 mph19.3 kmh 29.76 in1007.8 mb 0.00 in0.0 mm 0.00 in0.0 mm 0.34 in8.6 mm
08:00 PM 68.1°F20.1°C 53.6°F12.0°C 60% 2.0 mph N3.2 kmh N 11.0 mph17.7 kmh 29.76 in1007.8 mb 0.00 in0.0 mm 0.00 in0.0 mm 0.34 in8.6 mm
08:05 PM 68.1°F20.1°C 53.6°F12.0°C 60% 4.0 mph W6.4 kmh W 9.0 mph14.5 kmh 29.76 in1007.8 mb 0.00 in0.0 mm 0.00 in0.0 mm 0.34 in8.6 mm
08:10 PM 68.0°F20.0°C 53.5°F11.9°C 60% 2.0 mph NW3.2 kmh NW 8.0 mph12.9 kmh 29.75 in1007.5 mb 0.00 in0.0 mm 0.00 in0.0 mm 0.34 in8.6 mm
08:15 PM 68.0°F20.0°C 54.0°F12.2°C 61% 4.0 mph NW6.4 kmh NW 8.0 mph12.9 kmh 29.76 in1007.8 mb 0.00 in0.0 mm 0.00 in0.0 mm 0.34 in8.6 mm
08:20 PM 67.9°F19.9°C 54.3°F12.4°C 62% 4.0 mph S6.4 kmh S 10.0 mph16.1 kmh 29.75 in1007.5 mb 0.00 in0.0 mm 0.00 in0.0 mm 0.34 in8.6 mm
08:25 PM 67.8°F19.9°C 53.8°F12.1°C 61% Calm Calm 6.0 mph9.7 kmh 29.75 in1007.5 mb 0.00 in0.0 mm 0.00 in0.0 mm 0.34 in8.6 mm
08:30 PM 67.8°F19.9°C 54.2°F12.3°C 62% Calm Calm 14.0 mph22.5 kmh 29.75 in1007.5 mb 0.00 in0.0 mm 0.00 in0.0 mm 0.34 in8.6 mm
08:35 PM 67.7°F19.8°C 53.7°F12.1°C 61% 1.0 mph N1.6 kmh N 10.0 mph16.1 kmh 29.76 in1007.8 mb 0.00 in0.0 mm 0.00 in0.0 mm 0.34 in8.6 mm
08:40 PM 67.6°F19.8°C 53.6°F12.0°C 61% 1.0 mph W1.6 kmh W 9.0 mph14.5 kmh 29.76 in1007.8 mb 0.00 in0.0 mm 0.00 in0.0 mm 0.34 in8.6 mm
08:45 PM 67.4°F19.7°C 53.0°F11.7°C 60% 2.0 mph E3.2 kmh E 8.0 mph12.9 kmh 29.75 in1007.5 mb 0.00 in0.0 mm 0.00 in0.0 mm 0.34 in8.6 mm
08:50 PM 67.4°F19.7°C 53.4°F11.9°C 61% 2.0 mph SSW3.2 kmh SSW 11.0 mph17.7 kmh 29.75 in1007.5 mb 0.00 in0.0 mm 0.00 in0.0 mm 0.34 in8.6 mm
08:55 PM 67.4°F19.7°C 53.4°F11.9°C 61% 1.0 mph ESE1.6 kmh ESE 7.0 mph11.3 kmh 29.75 in1007.5 mb 0.00 in0.0 mm 0.00 in0.0 mm 0.34 in8.6 mm
09:00 PM 67.3°F19.6°C 53.3°F11.8°C 61% 3.0 mph WSW4.8 kmh WSW 8.0 mph12.9 kmh 29.76 in1007.8 mb 0.00 in0.0 mm 0.00 in0.0 mm 0.34 in8.6 mm
09:05 PM 67.3°F19.6°C 53.8°F12.1°C 62% 2.0 mph NW3.2 kmh NW 7.0 mph11.3 kmh 29.76 in1007.8 mb 0.00 in0.0 mm 0.00 in0.0 mm 0.34 in8.6 mm
09:10 PM 67.1°F19.5°C 53.6°F12.0°C 62% 1.0 mph NW1.6 kmh NW 7.0 mph11.3 kmh 29.76 in1007.8 mb 0.00 in0.0 mm 0.00 in0.0 mm 0.34 in8.6 mm
09:15 PM 67.0°F19.4°C 53.0°F11.7°C 61% Calm Calm 8.0 mph12.9 kmh 29.76 in1007.8 mb 0.00 in0.0 mm 0.00 in0.0 mm 0.34 in8.6 mm
09:20 PM 67.0°F19.4°C 53.5°F11.9°C 62% 1.0 mph 1.6 kmh 7.0 mph11.3 kmh 29.76 in1007.8 mb 0.00 in0.0 mm 0.00 in0.0 mm 0.34 in8.6 mm
09:25 PM 67.0°F19.4°C 53.5°F11.9°C 62% 1.0 mph SSE1.6 kmh SSE 6.0 mph9.7 kmh 29.76 in1007.8 mb 0.00 in0.0 mm 0.00 in0.0 mm 0.34 in8.6 mm
09:30 PM 66.9°F19.4°C 53.8°F12.1°C 63% 5.0 mph NW8.0 kmh NW 9.0 mph14.5 kmh 29.76 in1007.8 mb 0.00 in0.0 mm 0.00 in0.0 mm 0.34 in8.6 mm
09:35 PM 66.8°F19.3°C 53.7°F12.1°C 63% 2.0 mph ENE3.2 kmh ENE 9.0 mph14.5 kmh 29.76 in1007.8 mb 0.00 in0.0 mm 0.00 in0.0 mm 0.34 in8.6 mm
09:40 PM 66.7°F19.3°C 53.2°F11.8°C 62% 5.0 mph S8.0 kmh S 5.0 mph8.0 kmh 29.76 in1007.8 mb 0.00 in0.0 mm 0.00 in0.0 mm 0.34 in8.6 mm
09:45 PM 66.5°F19.2°C 52.6°F11.4°C 61% 2.0 mph S3.2 kmh S 11.0 mph17.7 kmh 29.76 in1007.8 mb 0.00 in0.0 mm 0.00 in0.0 mm 0.34 in8.6 mm
09:50 PM 66.4°F19.1°C 51.6°F10.9°C 59% 3.0 mph N4.8 kmh N 10.0 mph16.1 kmh 29.76 in1007.8 mb 0.00 in0.0 mm 0.00 in0.0 mm 0.34 in8.6 mm
09:55 PM 66.5°F19.2°C 52.1°F11.2°C 60% 2.0 mph E3.2 kmh E 11.0 mph17.7 kmh 29.76 in1007.8 mb 0.00 in0.0 mm 0.00 in0.0 mm 0.34 in8.6 mm
10:00 PM 66.5°F19.2°C 52.1°F11.2°C 60% 3.0 mph S4.8 kmh S 5.0 mph8.0 kmh 29.76 in1007.8 mb 0.00 in0.0 mm 0.00 in0.0 mm 0.34 in8.6 mm
10:05 PM 66.5°F19.2°C 51.7°F10.9°C 59% 4.0 mph W6.4 kmh W 9.0 mph14.5 kmh 29.76 in1007.8 mb 0.00 in0.0 mm 0.00 in0.0 mm 0.34 in8.6 mm
10:10 PM 66.4°F19.1°C 52.0°F11.1°C 60% 2.0 mph S3.2 kmh S 10.0 mph16.1 kmh 29.77 in1008.1 mb 0.00 in0.0 mm 0.00 in0.0 mm 0.34 in8.6 mm
10:15 PM 66.3°F19.1°C 51.9°F11.1°C 60% 3.0 mph ENE4.8 kmh ENE 5.0 mph8.0 kmh 29.77 in1008.1 mb 0.00 in0.0 mm 0.00 in0.0 mm 0.34 in8.6 mm
10:20 PM 66.3°F19.1°C 51.0°F10.6°C 58% 2.0 mph NE3.2 kmh NE 9.0 mph14.5 kmh 29.76 in1007.8 mb 0.00 in0.0 mm 0.00 in0.0 mm 0.34 in8.6 mm
10:25 PM 66.4°F19.1°C 51.6°F10.9°C 59% Calm Calm 7.0 mph11.3 kmh 29.76 in1007.8 mb 0.00 in0.0 mm 0.00 in0.0 mm 0.34 in8.6 mm
10:30 PM 66.3°F19.1°C 51.5°F10.8°C 59% 2.0 mph NNE3.2 kmh NNE 4.0 mph6.4 kmh 29.76 in1007.8 mb 0.00 in0.0 mm 0.00 in0.0 mm 0.34 in8.6 mm
10:35 PM 66.4°F19.1°C 51.6°F10.9°C 59% Calm Calm 13.0 mph20.9 kmh 29.76 in1007.8 mb 0.00 in0.0 mm 0.00 in0.0 mm 0.34 in8.6 mm
10:40 PM 66.3°F19.1°C 51.5°F10.8°C 59% Calm Calm 7.0 mph11.3 kmh 29.76 in1007.8 mb 0.00 in0.0 mm 0.00 in0.0 mm 0.34 in8.6 mm
10:45 PM 66.2°F19.0°C 50.9°F10.5°C 58% 2.0 mph SSE3.2 kmh SSE 5.0 mph8.0 kmh 29.76 in1007.8 mb 0.00 in0.0 mm 0.00 in0.0 mm 0.34 in8.6 mm
10:50 PM 66.2°F19.0°C 50.5°F10.3°C 57% Calm Calm 2.0 mph3.2 kmh 29.76 in1007.8 mb 0.00 in0.0 mm 0.00 in0.0 mm 0.34 in8.6 mm
10:55 PM 66.2°F19.0°C 50.5°F10.3°C 57% Calm Calm 8.0 mph12.9 kmh 29.76 in1007.8 mb 0.00 in0.0 mm 0.00 in0.0 mm 0.34 in8.6 mm
11:00 PM 66.2°F19.0°C 50.9°F10.5°C 58% Calm Calm 11.0 mph17.7 kmh 29.76 in1007.8 mb 0.00 in0.0 mm 0.00 in0.0 mm 0.34 in8.6 mm
11:05 PM 66.2°F19.0°C 50.9°F10.5°C 58% 2.0 mph NE3.2 kmh NE 10.0 mph16.1 kmh 29.76 in1007.8 mb 0.00 in0.0 mm 0.00 in0.0 mm 0.30 in7.6 mm
11:10 PM 66.2°F19.0°C 50.9°F10.5°C 58% Calm Calm 6.0 mph9.7 kmh 29.76 in1007.8 mb 0.00 in0.0 mm 0.00 in0.0 mm 0.30 in7.6 mm
11:15 PM 66.2°F19.0°C 50.9°F10.5°C 58% Calm Calm 3.0 mph4.8 kmh 29.76 in1007.8 mb 0.00 in0.0 mm 0.00 in0.0 mm 0.30 in7.6 mm
11:20 PM 66.1°F18.9°C 50.4°F10.2°C 57% Calm Calm 1.0 mph1.6 kmh 29.76 in1007.8 mb 0.00 in0.0 mm 0.00 in0.0 mm 0.30 in7.6 mm
11:25 PM 66.1°F18.9°C 50.8°F10.4°C 58% Calm Calm 2.0 mph3.2 kmh 29.76 in1007.8 mb 0.00 in0.0 mm 0.00 in0.0 mm 0.30 in7.6 mm
11:30 PM 66.1°F18.9°C 50.8°F10.4°C 58% Calm Calm 4.0 mph6.4 kmh 29.76 in1007.8 mb 0.00 in0.0 mm 0.00 in0.0 mm 0.30 in7.6 mm
11:35 PM 66.0°F18.9°C 50.7°F10.4°C 58% 1.0 mph W1.6 kmh W 8.0 mph12.9 kmh 29.76 in1007.8 mb 0.00 in0.0 mm 0.00 in0.0 mm 0.30 in7.6 mm
11:40 PM 66.0°F18.9°C 51.2°F10.7°C 59% Calm Calm 5.0 mph8.0 kmh 29.76 in1007.8 mb 0.00 in0.0 mm 0.00 in0.0 mm 0.30 in7.6 mm
11:45 PM 66.0°F18.9°C 51.7°F10.9°C 60% Calm Calm 10.0 mph16.1 kmh 29.76 in1007.8 mb 0.00 in0.0 mm 0.00 in0.0 mm 0.30 in7.6 mm
11:50 PM 66.0°F18.9°C 52.1°F11.2°C 61% Calm Calm 4.0 mph6.4 kmh 29.76 in1007.8 mb 0.00 in0.0 mm 0.00 in0.0 mm 0.30 in7.6 mm
11:55 PM 66.0°F18.9°C 52.1°F11.2°C 61% 4.0 mph SSW6.4 kmh SSW 7.0 mph11.3 kmh 29.76 in1007.8 mb 0.00 in0.0 mm 0.00 in0.0 mm 0.30 in7.6 mm